Time;durP1;ratioP1;P1;durP2;ratioP2;P2;SDS_P1;SDS_P2;PMS_P1;PMS_P2;Temp;Humidity;BMP_temperature;BMP_pressure;BME280_temperature;BME280_humidity;BME280_pressure;Samples;Min_cycle;Max_cycle;Signal;HPM_P1;HPM_P2
2022/05/19 00:02:26;;;;;;;18.15;9.05;;;;;;;5.21;54.51;101373.72;1692756;84;25921;-67
2022/05/19 00:04:52;;;;;;;21.95;9.68;;;;;;;5.17;54.97;101372.59;1693123;84;25596;-66
2022/05/19 00:07:19;;;;;;;24.37;9.00;;;;;;;5.12;54.36;101371.19;1693110;84;29491;-67
2022/05/19 00:09:45;;;;;;;24.82;9.53;;;;;;;5.08;54.54;101372.20;1661622;86;25498;-67
2022/05/19 00:12:18;;;;;;;22.45;9.70;;;;;;;5.08;54.53;101372.74;1650130;87;25763;-67
2022/05/19 00:14:45;;;;;;;21.52;9.48;;;;;;;5.07;55.04;101368.42;1650163;87;25479;-67
2022/05/19 00:17:11;;;;;;;21.45;9.40;;;;;;;5.01;55.02;101362.98;1649677;87;25702;-68
2022/05/19 00:19:38;;;;;;;25.80;9.80;;;;;;;4.98;55.09;101362.67;1666353;85;27410;-67
2022/05/19 00:22:07;;;;;;;25.00;10.28;;;;;;;4.94;54.66;101365.03;1688284;84;25676;-68
2022/05/19 00:24:35;;;;;;;26.37;8.78;;;;;;;4.88;54.85;101370.55;1688017;85;25484;-67
2022/05/19 00:27:01;;;;;;;22.62;8.83;;;;;;;4.82;55.21;101367.80;1688276;84;25994;-68
2022/05/19 00:29:27;;;;;;;19.70;8.25;;;;;;;4.79;55.23;101364.80;1688177;84;25659;-67
2022/05/19 00:31:55;;;;;;;22.07;9.70;;;;;;;4.74;55.44;101369.53;1696288;82;27446;-68
2022/05/19 00:34:21;;;;;;;25.60;8.83;;;;;;;4.70;55.88;101373.77;1722992;83;25756;-67
2022/05/19 00:36:47;;;;;;;21.80;9.43;;;;;;;4.65;55.87;101369.13;1723189;83;25540;-68
2022/05/19 00:39:13;;;;;;;23.77;10.60;;;;;;;4.60;56.07;101373.06;1723188;83;25444;-68
2022/05/19 00:41:43;;;;;;;25.80;9.38;;;;;;;4.58;56.75;101372.50;1723235;83;25652;-68
2022/05/19 00:44:10;;;;;;;27.60;9.20;;;;;;;4.53;56.54;101371.58;1722256;83;29795;-68
2022/05/19 00:46:55;;;;;;;23.27;10.20;;;;;;;4.47;56.32;101368.81;1723111;83;27144;-68
2022/05/19 00:49:26;;;;;;;24.72;9.18;;;;;;;4.43;56.79;101370.90;1700343;83;25418;-68
2022/05/19 00:52:05;;;;;;;25.37;9.65;;;;;;;4.41;57.21;101372.98;1723311;83;26062;-68
2022/05/19 00:54:49;;;;;;;21.15;9.53;;;;;;;4.37;57.14;101368.63;1723371;83;25567;-67
2022/05/19 00:57:23;;;;;;;20.72;9.60;;;;;;;4.35;57.02;101365.39;1723263;83;27190;-68
2022/05/19 01:00:07;;;;;;;23.35;9.48;;;;;;;4.32;56.96;101365.86;1723252;83;25646;-68
2022/05/19 01:02:41;;;;;;;21.90;8.93;;;;;;;4.28;57.31;101361.52;1723228;83;25585;-67
2022/05/19 01:05:13;;;;;;;25.15;9.13;;;;;;;4.25;57.47;101363.87;1723346;83;25418;-66
2022/05/19 01:07:48;;;;;;;25.52;9.93;;;;;;;4.22;58.10;101362.50;1722306;83;25549;-66
2022/05/19 01:10:15;;;;;;;23.60;9.28;;;;;;;4.17;57.62;101361.06;1722714;83;27330;-69
2022/05/19 01:12:46;;;;;;;19.25;8.70;;;;;;;4.17;58.15;101367.77;1723322;83;25566;-68
2022/05/19 01:15:13;;;;;;;18.00;9.43;;;;;;;4.13;58.16;101367.94;1723413;83;25601;-67
2022/05/19 01:17:40;;;;;;;21.20;9.28;;;;;;;4.09;58.33;101366.80;1723023;83;25395;-67
2022/05/19 01:20:24;;;;;;;26.33;9.45;;;;;;;4.05;58.09;101363.79;1718805;83;25479;-68
2022/05/19 01:23:18;;;;;;;20.37;8.55;;;;;;;4.01;58.73;101367.17;1718272;83;26721;-67
2022/05/19 01:26:12;;;;;;;18.05;8.78;;;;;;;3.97;58.44;101375.38;1718519;83;25711;-67
2022/05/19 01:28:38;;;;;;;24.15;8.83;;;;;;;3.95;58.66;101378.32;1718723;83;25413;-67
2022/05/19 01:31:04;;;;;;;24.67;8.75;;;;;;;3.91;58.55;101372.59;1718791;83;25457;-68
2022/05/19 01:33:31;;;;;;;23.52;9.28;;;;;;;3.90;59.13;101373.67;1718836;83;25391;-67
2022/05/19 01:35:57;;;;;;;18.55;8.83;;;;;;;3.87;59.55;101380.83;1718733;83;27455;-66
2022/05/19 01:38:31;;;;;;;17.73;8.78;;;;;;;3.85;59.00;101376.78;1718575;83;27280;-67
2022/05/19 01:41:20;;;;;;;18.23;9.05;;;;;;;3.84;59.00;101375.14;1718689;83;25477;-67
2022/05/19 01:44:15;;;;;;;19.82;9.03;;;;;;;3.81;59.65;101372.94;1718187;82;25555;-67
2022/05/19 01:46:44;;;;;;;16.67;8.60;;;;;;;3.77;58.95;101371.80;1718707;83;25539;-66
2022/05/19 01:49:22;;;;;;;21.93;9.20;;;;;;;3.74;59.47;101367.17;1718866;83;27189;-67
2022/05/19 01:52:15;;;;;;;18.10;9.10;;;;;;;3.73;59.51;101368.78;1718721;83;26218;-67
2022/05/19 01:55:11;;;;;;;25.72;9.73;;;;;;;3.70;60.03;101364.70;1718331;82;25614;-67
2022/05/19 01:57:52;;;;;;;14.85;8.48;;;;;;;3.65;59.42;101367.27;1617294;88;27421;-67
2022/05/19 02:00:24;;;;;;;17.17;8.70;;;;;;;3.60;59.82;101374.39;1617336;88;25663;-69
2022/05/19 02:02:58;;;;;;;22.13;9.10;;;;;;;3.57;59.45;101376.99;1617287;88;27403;-66
2022/05/19 02:06:11;;;;;;;18.27;9.85;;;;;;;3.54;59.29;101374.78;1617322;88;25641;-67
2022/05/19 02:08:43;;;;;;;24.10;10.43;;;;;;;3.50;59.82;101374.45;1617341;88;25718;-66
2022/05/19 02:11:14;;;;;;;25.88;8.85;;;;;;;3.46;60.49;101374.64;1586704;90;25599;-67
2022/05/19 02:13:41;;;;;;;24.12;9.90;;;;;;;3.43;60.01;101367.61;1573558;89;25740;-67
2022/05/19 02:16:13;;;;;;;23.07;10.18;;;;;;;3.40;60.34;101366.73;1573660;91;28081;-67
2022/05/19 02:18:42;;;;;;;20.97;9.05;;;;;;;3.37;60.57;101369.34;1617233;86;25706;-67
2022/05/19 02:21:08;;;;;;;21.75;9.20;;;;;;;3.34;60.57;101365.81;1617284;88;25536;-67
2022/05/19 02:23:36;;;;;;;21.77;9.85;;;;;;;3.31;60.35;101365.75;1617336;88;25587;-67
2022/05/19 02:26:02;;;;;;;20.90;10.45;;;;;;;3.30;60.71;101369.48;1617339;88;26379;-67
2022/05/19 02:28:33;;;;;;;20.88;9.95;;;;;;;3.28;60.29;101372.09;1586679;90;27409;-67
2022/05/19 02:31:00;;;;;;;23.35;9.93;;;;;;;3.27;60.72;101371.79;1573591;91;25706;-67
2022/05/19 02:33:27;;;;;;;26.65;10.05;;;;;;;3.25;60.89;101368.04;1594698;86;25568;-67
2022/05/19 02:35:54;;;;;;;25.97;10.85;;;;;;;3.22;61.04;101365.83;1669208;86;25680;-67
2022/05/19 02:38:21;;;;;;;20.88;10.00;;;;;;;3.18;61.31;101370.83;1674627;85;25668;-67
2022/05/19 02:40:49;;;;;;;19.95;10.53;;;;;;;3.14;61.22;101366.97;1645801;86;27341;-68
2022/05/19 02:43:17;;;;;;;23.70;9.83;;;;;;;3.11;61.45;101366.09;1645699;86;25463;-67
2022/05/19 02:45:44;;;;;;;21.20;10.28;;;;;;;3.09;61.60;101370.06;1645780;86;25683;-67
2022/05/19 02:48:14;;;;;;;21.35;10.65;;;;;;;3.06;61.65;101360.63;1645767;86;25430;-67
2022/05/19 02:50:42;;;;;;;19.70;9.10;;;;;;;3.04;62.17;101361.92;1645964;86;25612;-67
2022/05/19 02:53:11;;;;;;;20.62;10.13;;;;;;;3.02;61.96;101368.03;1674570;84;27327;-67
2022/05/19 02:55:39;;;;;;;22.93;10.63;;;;;;;3.00;62.31;101361.58;1674625;84;25587;-67
2022/05/19 02:58:08;;;;;;;20.12;10.08;;;;;;;2.98;62.22;101364.48;1674591;85;25478;-67
2022/05/19 03:00:35;;;;;;;21.85;10.15;;;;;;;2.98;62.40;101361.81;1674594;85;25526;-67
2022/05/19 03:03:01;;;;;;;20.77;9.73;;;;;;;2.98;62.41;101361.01;1674594;84;25474;-68
2022/05/19 03:05:32;;;;;;;20.00;10.03;;;;;;;2.96;62.60;101357.73;1674566;85;28157;-68
2022/05/19 03:07:58;;;;;;;22.00;9.73;;;;;;;2.95;62.21;101364.14;1642257;87;25655;-67
2022/05/19 03:10:25;;;;;;;31.12;11.08;;;;;;;2.95;62.62;101360.93;1669280;86;25508;-67
2022/05/19 03:12:54;;;;;;;21.02;10.00;;;;;;;2.96;62.51;101359.90;1674544;85;25567;-67
2022/05/19 03:15:20;;;;;;;19.40;10.25;;;;;;;2.98;62.61;101363.15;1645919;87;25674;-67
2022/05/19 03:17:46;;;;;;;16.32;9.40;;;;;;;3.00;63.06;101366.92;1645790;86;28054;-68
2022/05/19 03:20:13;;;;;;;28.90;9.85;;;;;;;2.99;62.91;101367.43;1655023;86;25487;-68
2022/05/19 03:22:40;;;;;;;18.27;9.85;;;;;;;3.01;63.09;101365.06;1660056;85;25656;-68
2022/05/19 03:25:08;;;;;;;18.23;10.08;;;;;;;3.05;63.43;101364.88;1685597;85;26088;-68
2022/05/19 03:27:37;;;;;;;20.70;8.93;;;;;;;3.07;63.59;101364.95;1685635;84;25581;-68
2022/05/19 03:30:07;;;;;;;16.48;9.63;;;;;;;3.11;63.69;101371.45;1686093;85;27402;-68
2022/05/19 03:32:33;;;;;;;19.35;9.28;;;;;;;3.17;63.77;101364.38;1685998;85;25759;-69
2022/05/19 03:35:00;;;;;;;14.75;8.93;;;;;;;3.23;63.77;101370.11;1686120;85;25642;-68
2022/05/19 03:37:26;;;;;;;22.67;9.98;;;;;;;3.28;64.27;101370.22;1686094;85;26054;-68
2022/05/19 03:39:52;;;;;;;18.92;9.65;;;;;;;3.34;64.40;101363.95;1686044;85;25652;-68
2022/05/19 03:42:18;;;;;;;16.45;9.40;;;;;;;3.42;64.58;101369.98;1686053;85;27400;-68
2022/05/19 03:44:44;;;;;;;16.23;9.13;;;;;;;3.48;64.66;101373.88;1686039;85;25545;-68
2022/05/19 03:47:10;;;;;;;17.00;9.68;;;;;;;3.58;64.56;101367.12;1686088;85;25410;-68
2022/05/19 03:49:37;;;;;;;18.42;9.83;;;;;;;3.67;64.63;101364.36;1686070;85;26010;-68
2022/05/19 03:52:05;;;;;;;15.93;8.63;;;;;;;3.76;64.93;101370.95;1686152;85;25498;-68
2022/05/19 03:54:31;;;;;;;16.48;9.28;;;;;;;3.86;64.93;101369.02;1686181;85;27408;-68
2022/05/19 03:56:57;;;;;;;17.25;8.28;;;;;;;3.99;64.91;101373.30;1686044;85;33137;-68
2022/05/19 03:59:23;;;;;;;19.95;9.48;;;;;;;4.14;64.92;101376.27;1686172;85;29643;-68
2022/05/19 04:01:50;;;;;;;20.10;8.85;;;;;;;4.27;64.85;101376.48;1686037;85;25576;-68
2022/05/19 04:04:16;;;;;;;15.50;8.78;;;;;;;4.40;64.82;101375.39;1686130;85;25473;-67
2022/05/19 04:06:42;;;;;;;15.98;8.80;;;;;;;4.54;64.53;101376.70;1686111;84;27358;-68
2022/05/19 04:09:09;;;;;;;15.05;8.50;;;;;;;4.70;64.28;101368.91;1685986;84;25406;-68
2022/05/19 04:11:35;;;;;;;17.73;8.53;;;;;;;4.86;64.23;101359.53;1686075;85;25561;-68
2022/05/19 04:14:02;;;;;;;18.87;9.43;;;;;;;5.01;63.73;101356.28;1685999;85;27583;-68
2022/05/19 04:16:28;;;;;;;15.48;9.10;;;;;;;5.19;63.59;101363.27;1686067;85;25470;-67
2022/05/19 04:18:54;;;;;;;18.52;9.05;;;;;;;5.36;63.54;101365.91;1685971;84;27327;-67
2022/05/19 04:21:21;;;;;;;12.55;8.55;;;;;;;5.53;63.22;101365.84;1686025;85;25383;-68
2022/05/19 04:23:48;;;;;;;15.88;8.80;;;;;;;5.69;62.94;101364.72;1686010;85;25579;-67
2022/05/19 04:26:14;;;;;;;12.30;8.13;;;;;;;5.86;62.90;101367.34;1686056;85;25456;-67
2022/05/19 04:28:41;;;;;;;18.15;9.30;;;;;;;6.00;62.55;101364.56;1686053;85;25631;-67
2022/05/19 04:31:07;;;;;;;15.35;7.80;;;;;;;6.17;62.26;101372.54;1686100;84;27878;-67
2022/05/19 04:33:33;;;;;;;15.75;8.53;;;;;;;6.33;62.03;101372.15;1686037;85;25917;-68
2022/05/19 04:36:02;;;;;;;18.45;7.60;;;;;;;6.50;61.87;101363.98;1686242;85;25417;-68
2022/05/19 04:38:28;;;;;;;18.42;7.87;;;;;;;6.66;61.67;101365.74;1686347;85;25592;-67
2022/05/19 04:40:58;;;;;;;16.62;8.05;;;;;;;6.85;61.30;101364.02;1686315;85;25425;-68
2022/05/19 04:43:25;;;;;;;15.85;8.00;;;;;;;7.02;60.97;101366.55;1686227;85;28405;-66
2022/05/19 04:45:53;;;;;;;16.75;8.13;;;;;;;7.18;60.88;101367.45;1686150;85;25425;-66
2022/05/19 04:48:21;;;;;;;18.17;7.95;;;;;;;7.35;60.65;101360.56;1686214;85;25639;-66
2022/05/19 04:50:54;;;;;;;15.25;7.70;;;;;;;7.51;60.23;101366.30;1686183;85;25629;-66
2022/05/19 04:53:21;;;;;;;14.10;7.58;;;;;;;7.69;59.84;101359.64;1685568;84;25501;-66
2022/05/19 04:55:48;;;;;;;11.50;7.28;;;;;;;7.89;59.36;101362.95;1686216;85;27336;-66
2022/05/19 04:58:14;;;;;;;12.40;7.72;;;;;;;8.08;59.30;101362.47;1686126;85;25551;-66
2022/05/19 05:00:40;;;;;;;17.20;7.05;;;;;;;8.28;58.59;101364.41;1686273;85;25424;-66
2022/05/19 05:03:07;;;;;;;12.58;7.25;;;;;;;8.47;57.99;101356.63;1686153;85;25452;-67
2022/05/19 05:05:34;;;;;;;12.43;7.87;;;;;;;8.65;57.40;101358.80;1686225;85;25662;-66
2022/05/19 05:08:01;;;;;;;11.60;6.87;;;;;;;8.85;56.96;101362.02;1686226;85;27333;-66
2022/05/19 05:10:28;;;;;;;14.50;6.45;;;;;;;9.03;56.60;101366.61;1686129;85;25638;-67
2022/05/19 05:12:54;;;;;;;14.07;6.25;;;;;;;9.22;56.41;101363.59;1686207;85;25434;-66
2022/05/19 05:15:20;;;;;;;13.80;6.55;;;;;;;9.41;56.39;101372.45;1686135;85;26086;-67
2022/05/19 05:17:47;;;;;;;11.25;6.30;;;;;;;9.60;55.59;101363.20;1686226;85;25417;-66
2022/05/19 05:20:14;;;;;;;15.20;6.50;;;;;;;9.83;55.61;101363.13;1686244;84;27406;-66
2022/05/19 05:22:40;;;;;;;14.35;5.65;;;;;;;10.07;54.78;101364.06;1686317;85;25513;-67
2022/05/19 05:25:12;;;;;;;11.48;6.95;;;;;;;10.29;54.19;101369.62;1686466;85;25583;-67
2022/05/19 05:27:38;;;;;;;10.85;6.70;;;;;;;10.51;54.20;101354.91;1688284;85;26164;-67
2022/05/19 05:30:07;;;;;;;14.53;5.90;;;;;;;10.74;53.36;101366.88;1688252;85;25440;-68
2022/05/19 05:32:35;;;;;;;10.40;5.53;;;;;;;10.93;52.62;101360.21;1688618;85;27516;-68
2022/05/19 05:35:03;;;;;;;12.15;6.45;;;;;;;11.14;52.53;101358.92;1686360;85;25379;-67
2022/05/19 05:37:29;;;;;;;11.73;5.55;;;;;;;11.33;51.55;101356.28;1686445;84;25477;-66
2022/05/19 05:39:55;;;;;;;10.88;5.62;;;;;;;11.52;51.27;101345.50;1686419;85;25581;-66
2022/05/19 05:42:21;;;;;;;13.58;5.62;;;;;;;11.71;50.88;101346.09;1688411;85;25650;-67
2022/05/19 05:44:49;;;;;;;11.57;5.95;;;;;;;11.90;50.30;101353.71;1688368;85;28143;-67
2022/05/19 05:47:16;;;;;;;10.88;5.35;;;;;;;12.10;50.34;101358.61;1688336;84;25683;-67
2022/05/19 05:49:42;;;;;;;9.10;4.40;;;;;;;12.30;49.58;101360.23;1688474;85;25359;-67
2022/05/19 05:52:08;;;;;;;11.18;4.50;;;;;;;12.48;48.68;101360.77;1688386;84;25462;-67
2022/05/19 05:54:34;;;;;;;11.25;4.90;;;;;;;12.67;47.43;101366.71;1688558;85;25369;-67
2022/05/19 05:57:01;;;;;;;8.83;4.30;;;;;;;12.84;46.27;101364.24;1670920;85;28105;-67
2022/05/19 05:59:28;;;;;;;7.92;4.35;;;;;;;13.00;46.01;101377.55;1670887;85;25602;-66
2022/05/19 06:01:54;;;;;;;10.82;4.83;;;;;;;13.15;45.71;101369.69;1670916;85;25788;-66
2022/05/19 06:04:21;;;;;;;12.20;4.92;;;;;;;13.34;45.34;101370.98;1670876;85;25343;-66
2022/05/19 06:06:47;;;;;;;9.38;4.12;;;;;;;13.52;45.04;101374.70;1670960;85;25623;-67
2022/05/19 06:09:15;;;;;;;18.65;4.60;;;;;;;13.72;45.13;101372.13;1670982;85;27338;-67
2022/05/19 06:11:42;;;;;;;7.92;4.08;;;;;;;13.92;44.80;101372.25;1670858;85;25728;-67
2022/05/19 06:14:09;;;;;;;19.42;4.65;;;;;;;14.13;44.34;101373.43;1670972;85;25473;-67
2022/05/19 06:16:35;;;;;;;6.00;3.52;;;;;;;14.34;43.39;101372.95;1670934;85;25502;-68
2022/05/19 06:19:02;;;;;;;11.05;4.03;;;;;;;14.51;41.88;101360.04;1670949;85;25563;-67
2022/05/19 06:21:28;;;;;;;10.88;4.03;;;;;;;14.71;41.70;101369.63;1666219;85;27364;-67
2022/05/19 06:23:55;;;;;;;10.55;3.60;;;;;;;14.91;42.30;101373.23;1665986;86;25790;-68
2022/05/19 06:26:21;;;;;;;11.65;3.92;;;;;;;15.14;42.04;101366.37;1639473;86;25286;-68
2022/05/19 06:28:47;;;;;;;9.55;3.70;;;;;;;15.40;41.24;101364.30;1666501;85;25475;-68
2022/05/19 06:31:14;;;;;;;10.80;3.80;;;;;;;15.64;41.22;101366.62;1666261;86;25726;-67
2022/05/19 06:33:40;;;;;;;10.45;3.90;;;;;;;15.92;39.32;101360.91;1665815;86;27292;-67
2022/05/19 06:36:10;;;;;;;14.58;4.00;;;;;;;16.09;38.48;101361.50;1665808;86;25680;-67
2022/05/19 06:38:35;;;;;;;9.75;3.25;;;;;;;16.28;38.87;101355.72;1665550;86;25594;-67
2022/05/19 06:43:48;;;;;;;8.65;3.00;;;;;;;16.75;37.54;101354.45;1665855;85;25731;-67
2022/05/19 06:46:14;;;;;;;4.50;2.80;;;;;;;16.92;36.79;101354.44;1666016;86;27354;-66
2022/05/19 06:48:41;;;;;;;10.85;3.65;;;;;;;17.13;36.84;101353.17;1665694;86;25778;-66
2022/05/19 06:51:07;;;;;;;9.65;3.40;;;;;;;17.41;36.86;101370.50;1665883;86;25719;-67
2022/05/19 06:53:36;;;;;;;8.53;3.05;;;;;;;17.66;36.34;101370.13;1665786;86;25418;-67
2022/05/19 06:56:03;;;;;;;7.03;2.85;;;;;;;17.91;34.98;101375.79;1665904;85;25481;-67
2022/05/19 06:58:29;;;;;;;8.85;3.00;;;;;;;18.07;35.17;101378.18;1665787;86;27400;-66
2022/05/19 07:00:57;;;;;;;5.67;2.85;;;;;;;18.24;34.65;101369.61;1665710;85;25833;-67
2022/05/19 07:03:24;;;;;;;6.25;3.65;;;;;;;18.41;34.55;101369.45;1665833;86;25445;-67
2022/05/19 07:05:50;;;;;;;17.27;3.33;;;;;;;18.58;33.84;101372.59;1638779;86;25765;-67
2022/05/19 07:08:16;;;;;;;13.30;3.42;;;;;;;18.78;33.52;101372.33;1665894;85;25735;-67
2022/05/19 07:10:42;;;;;;;7.97;3.45;;;;;;;18.94;33.44;101354.68;1665884;86;27382;-66
2022/05/19 07:13:08;;;;;;;7.35;2.50;;;;;;;19.24;33.75;101355.87;1665868;85;25406;-67
2022/05/19 07:15:34;;;;;;;9.50;2.77;;;;;;;19.51;31.51;101337.09;1665884;85;25405;-67
2022/05/19 07:18:00;;;;;;;9.55;2.60;;;;;;;19.63;30.88;101345.34;1665899;86;25664;-68
2022/05/19 07:20:44;;;;;;;13.10;2.70;;;;;;;19.67;30.93;101339.38;1667197;86;25708;-67
2022/05/19 07:23:16;;;;;;;6.72;2.37;;;;;;;19.88;31.31;101339.82;1669199;86;28108;-67
2022/05/19 07:25:43;;;;;;;7.10;2.22;;;;;;;20.10;31.01;101339.29;1669037;86;25750;-67
2022/05/19 07:28:12;;;;;;;9.03;2.30;;;;;;;20.33;30.82;101338.77;1669255;86;25645;-66
2022/05/19 07:30:39;;;;;;;11.63;1.98;;;;;;;20.47;30.51;101336.40;1669130;86;25640;-67
2022/05/19 07:33:06;;;;;;;6.83;1.90;;;;;;;20.73;30.04;101337.89;1665605;85;25446;-67
2022/05/19 07:35:34;;;;;;;6.60;2.45;;;;;;;20.92;28.91;101333.65;1666108;86;28029;-67
2022/05/19 07:38:02;;;;;;;5.62;2.12;;;;;;;21.21;29.67;101327.69;1665999;86;25764;-68
2022/05/19 07:40:28;;;;;;;4.67;1.90;;;;;;;21.58;29.09;101327.98;1702834;83;25752;-68
2022/05/19 07:43:35;;;;;;;7.25;2.22;;;;;;;21.72;27.97;101337.92;1702767;83;25573;-67
2022/05/19 07:45:23;;;;;;;8.63;2.05;;;;;;;21.94;27.36;101325.99;1698747;84;25810;-68
2022/05/19 07:47:49;;;;;;;4.40;2.00;;;;;;;22.15;27.93;101326.44;1702436;83;27323;-67
2022/05/19 07:50:15;;;;;;;3.08;1.62;;;;;;;22.52;27.48;101321.05;1702563;84;25531;-67
2022/05/19 07:52:41;;;;;;;5.53;1.90;;;;;;;22.83;26.78;101327.50;1702663;83;25673;-67
2022/05/19 07:55:09;;;;;;;8.35;1.90;;;;;;;23.11;26.49;101316.97;1702774;84;26166;-67
2022/05/19 07:57:35;;;;;;;6.78;2.02;;;;;;;23.26;25.29;101322.13;1702573;83;25587;-67
2022/05/19 08:00:05;;;;;;;7.25;1.47;;;;;;;23.38;25.90;101314.79;1702673;83;28036;-67
2022/05/19 08:02:32;;;;;;;5.85;1.70;;;;;;;23.69;25.05;101311.69;1702025;84;25978;-68
2022/05/19 08:04:58;;;;;;;5.30;1.87;;;;;;;23.96;24.39;101317.80;1701950;84;25634;-67
2022/05/19 08:07:24;;;;;;;1.77;1.32;;;;;;;24.16;24.33;101314.26;1702709;83;25703;-67
2022/05/19 08:15:36;;;;;;;4.12;1.20;;;;;;;24.51;22.67;101308.91;1702518;84;25603;-67
2022/05/19 08:18:10;;;;;;;3.62;1.20;;;;;;;24.41;20.45;101315.91;1702700;83;25674;-67
2022/05/19 08:20:41;;;;;;;4.20;1.40;;;;;;;24.22;21.52;101304.47;1707920;82;25606;-66
2022/05/19 08:23:21;;;;;;;4.22;1.35;;;;;;;24.28;21.91;101305.73;1718933;83;26237;-66
2022/05/19 08:25:48;;;;;;;7.03;1.57;;;;;;;24.32;21.12;101298.25;1719071;83;27316;-66
2022/05/19 08:28:16;;;;;;;5.03;1.25;;;;;;;24.56;22.04;101305.83;1719078;83;25581;-68
2022/05/19 08:30:49;;;;;;;4.10;1.90;;;;;;;24.97;21.80;101303.02;1719003;83;25696;-68
2022/05/19 08:33:17;;;;;;;2.77;1.00;;;;;;;25.26;20.95;101313.73;1719121;83;26080;-68
2022/05/19 08:35:43;;;;;;;3.50;1.30;;;;;;;25.14;19.44;101309.27;1718880;83;26421;-68
2022/05/19 08:38:11;;;;;;;7.85;1.10;;;;;;;25.19;20.07;101299.82;1719143;83;25858;-68
2022/05/19 08:40:46;;;;;;;4.65;1.20;;;;;;;25.24;19.21;101292.53;1718660;83;25750;-68
2022/05/19 08:43:16;;;;;;;5.00;1.20;;;;;;;25.05;19.20;101292.22;1718969;83;25534;-68
2022/05/19 08:45:48;;;;;;;3.05;1.10;;;;;;;25.13;18.72;101293.05;1719090;83;25971;-68
2022/05/19 08:48:19;;;;;;;3.95;1.50;;;;;;;25.19;19.76;101291.52;1719236;83;25617;-68
2022/05/19 08:50:51;;;;;;;9.50;2.85;;;;;;;25.44;19.40;101290.92;1719193;83;27556;-68
2022/05/19 08:53:18;;;;;;;7.37;1.50;;;;;;;25.74;19.91;101290.65;1718248;83;26173;-68
2022/05/19 08:55:49;;;;;;;6.08;1.42;;;;;;;26.21;19.79;101286.70;1719073;83;25682;-69
2022/05/19 08:58:27;;;;;;;2.98;1.15;;;;;;;26.60;19.71;101281.80;1716998;83;25831;-69
2022/05/19 09:01:16;;;;;;;1.77;1.20;;;;;;;26.88;17.76;101286.57;1717995;83;25757;-68
2022/05/19 09:03:57;;;;;;;7.25;1.30;;;;;;;26.70;18.31;101281.04;1719183;83;27336;-67
2022/05/19 09:06:35;;;;;;;5.75;1.10;;;;;;;26.70;17.88;101278.27;1718940;83;25801;-68
2022/05/19 09:09:25;;;;;;;15.00;1.87;;;;;;;26.77;17.53;101274.70;1719351;83;25461;-68
2022/05/19 09:12:06;;;;;;;2.62;0.90;;;;;;;26.78;18.26;101264.59;1719023;83;25720;-69
2022/05/19 09:14:34;;;;;;;6.00;1.30;;;;;;;27.07;18.47;101263.75;1718557;83;25803;-68
2022/05/19 09:17:09;;;;;;;6.08;1.00;;;;;;;27.23;17.76;101262.73;1719182;83;27311;-69
2022/05/19 09:19:52;;;;;;;5.20;1.17;;;;;;;27.20;17.31;101262.14;1719060;83;25639;-68
2022/05/19 09:22:24;;;;;;;5.55;1.32;;;;;;;27.13;17.05;101267.11;1719155;83;25552;-67
2022/05/19 09:24:53;;;;;;;3.52;1.17;;;;;;;27.17;17.51;101266.50;1719153;83;25561;-67
2022/05/19 09:27:22;;;;;;;8.43;1.35;;;;;;;27.37;17.18;101264.71;1719319;83;25404;-67
2022/05/19 09:29:57;;;;;;;4.33;1.30;;;;;;;27.31;16.98;101257.97;1719344;83;27313;-67
2022/05/19 09:32:34;;;;;;;4.03;1.10;;;;;;;27.47;17.02;101262.49;1719229;82;25791;-67
2022/05/19 09:35:11;;;;;;;6.78;1.70;;;;;;;27.39;16.01;101258.94;1719372;83;25567;-67
2022/05/19 09:37:45;;;;;;;4.15;1.37;;;;;;;27.38;16.46;101255.98;1719162;83;26061;-67
2022/05/19 09:40:28;;;;;;;5.78;1.32;;;;;;;27.11;16.35;101261.17;1718677;83;26210;-68
2022/05/19 09:43:06;;;;;;;5.03;1.55;;;;;;;26.89;16.64;101257.64;1719251;83;27972;-68
2022/05/19 09:45:47;;;;;;;6.92;1.55;;;;;;;26.76;16.68;101248.13;1718397;83;25713;-68
2022/05/19 09:48:14;;;;;;;5.72;1.55;;;;;;;26.99;17.32;101245.73;1715671;83;25777;-68
2022/05/19 09:50:48;;;;;;;2.45;1.40;;;;;;;27.25;16.78;101238.73;1719139;83;25649;-67
2022/05/19 09:53:27;;;;;;;11.73;7.58;;;;;;;27.25;16.87;101235.95;1719347;83;25579;-67
2022/05/19 09:56:13;;;;;;;3.05;1.98;;;;;;;27.59;17.21;101234.87;1718240;83;27459;-68
2022/05/19 09:58:44;;;;;;;7.08;1.50;;;;;;;27.92;17.24;101227.17;1717406;81;25414;-68
2022/05/19 10:01:33;;;;;;;4.35;1.20;;;;;;;28.47;17.17;101225.02;1724542;83;25560;-68
2022/05/19 10:04:07;;;;;;;7.47;1.75;;;;;;;29.06;16.93;101226.87;1724952;83;25602;-67
2022/05/19 10:06:39;;;;;;;3.98;1.40;;;;;;;29.13;15.44;101221.03;1725162;82;25772;-67
2022/05/19 10:09:14;;;;;;;4.22;1.10;;;;;;;28.65;15.56;101219.92;1725199;82;27383;-67
2022/05/19 10:11:55;;;;;;;3.75;1.30;;;;;;;28.51;15.04;101223.59;1724947;83;27141;-68
2022/05/19 10:14:31;;;;;;;3.98;1.30;;;;;;;28.04;15.29;101220.36;1724079;82;25695;-68
2022/05/19 10:17:18;;;;;;;2.45;1.55;;;;;;;27.73;15.81;101207.61;1725061;82;25409;-68
2022/05/19 10:20:12;;;;;;;4.75;1.20;;;;;;;27.66;16.06;101204.87;1725163;82;25821;-69
2022/05/19 10:23:14;;;;;;;4.10;1.62;;;;;;;27.89;16.18;101206.53;1724986;82;27398;-68
2022/05/19 10:26:15;;;;;;;6.92;1.62;;;;;;;27.72;15.79;101199.87;1724963;83;25612;-67
2022/05/19 10:32:31;;;;;;;7.72;1.60;;;;;;;27.66;16.03;101190.37;1627501;88;25696;-68
2022/05/19 10:35:12;;;;;;;4.65;1.42;;;;;;;27.84;16.37;101190.28;1627556;88;26326;-67
2022/05/19 10:37:55;;;;;;;3.62;1.20;;;;;;;28.06;15.96;101174.28;1627600;88;28132;-69
2022/05/19 10:40:45;;;;;;;5.53;1.30;;;;;;;28.28;14.69;101175.48;1627473;88;25745;-68
2022/05/19 10:43:34;;;;;;;1.45;1.02;;;;;;;28.18;15.59;101170.80;1627629;88;25674;-71
2022/05/19 10:46:06;;;;;;;4.08;1.30;;;;;;;28.05;15.27;101175.47;1586817;89;25897;-70
2022/05/19 10:48:47;;;;;;;2.90;1.47;;;;;;;28.05;15.22;101171.91;1581710;89;25719;-71
2022/05/19 10:51:47;;;;;;;5.47;1.30;;;;;;;28.01;15.37;101164.17;1537152;92;27370;-69
2022/05/19 10:54:47;;;;;;;5.90;1.40;;;;;;;28.22;15.07;101177.14;1541724;93;27117;-69
2022/05/19 10:57:40;;;;;;;4.50;1.37;;;;;;;28.15;15.21;101163.30;1522952;93;25749;-69
2022/05/19 11:00:18;;;;;;;4.22;1.35;;;;;;;28.16;15.17;101150.95;1541574;93;25808;-69
2022/05/19 11:03:23;;;;;;;4.53;1.87;;;;;;;27.98;15.42;101137.20;1522939;93;25806;-69
2022/05/19 11:06:04;;;;;;;4.87;1.60;;;;;;;28.22;15.96;101134.03;1559533;90;27569;-68
2022/05/19 11:08:51;;;;;;;4.78;1.67;;;;;;;28.75;15.60;101131.95;1600518;89;25481;-69
2022/05/19 11:11:52;;;;;;;6.53;1.75;;;;;;;28.72;15.02;101153.05;1596462;89;25888;-69
2022/05/19 11:14:43;;;;;;;6.33;1.62;;;;;;;28.51;15.52;101134.55;1606673;89;26403;-68
2022/05/19 11:17:41;;;;;;;6.50;1.52;;;;;;;28.74;15.55;101126.19;1611903;87;25799;-69
2022/05/19 11:20:25;;;;;;;3.00;1.87;;;;;;;28.94;15.36;101122.98;1612950;88;28057;-68
2022/05/19 11:23:15;;;;;;;7.75;1.52;;;;;;;29.02;15.46;101120.30;1637761;85;25771;-68
2022/05/19 11:28:42;;;;;;;28.70;2.05;;;;;;;28.96;15.48;101109.45;1677086;85;25731;-68
2022/05/19 11:31:36;;;;;;;6.03;1.65;;;;;;;29.21;14.90;101110.53;1638673;87;25661;-69
2022/05/19 11:34:08;;;;;;;4.28;1.35;;;;;;;28.98;15.06;101111.20;1650425;86;27358;-69
2022/05/19 11:36:58;;;;;;;2.15;1.45;;;;;;;28.62;14.74;101098.28;1650187;86;25608;-69
2022/05/19 11:39:38;;;;;;;4.72;1.90;;;;;;;28.45;15.53;101091.09;1662944;86;25775;-69
2022/05/19 11:42:51;;;;;;;4.03;1.62;;;;;;;28.67;15.37;101093.08;1675629;85;25829;-69
2022/05/19 11:45:44;;;;;;;6.40;1.70;;;;;;;28.96;15.54;101086.36;1672960;85;25747;-69
2022/05/19 11:58:04;;;;;;;5.35;2.35;;;;;;;29.41;14.53;101073.05;1675141;85;25691;-69
2022/05/19 12:01:00;;;;;;;6.85;1.82;;;;;;;29.28;14.52;101061.52;1642839;85;25728;-69
2022/05/19 12:04:05;;;;;;;6.33;1.92;;;;;;;29.17;14.88;101059.67;1660712;86;28088;-68
2022/05/19 12:06:37;;;;;;;7.25;1.55;;;;;;;29.32;15.11;101060.84;1651314;86;25856;-68
2022/05/19 12:09:17;;;;;;;3.83;2.00;;;;;;;29.49;14.83;101058.42;1666021;86;25702;-69
2022/05/19 12:11:50;;;;;;;4.85;1.77;;;;;;;29.54;14.61;101057.95;1652830;86;25832;-69
2022/05/19 12:14:27;;;;;;;11.45;2.05;;;;;;;29.36;14.99;101048.45;1714871;83;25741;-68